Time;durP1;ratioP1;P1;durP2;ratioP2;P2;SDS_P1;SDS_P2;PMS_P1;PMS_P2;Temp;Humidity;BMP_temperature;BMP_pressure;BME280_temperature;BME280_humidity;BME280_pressure;Samples;Min_cycle;Max_cycle;Signal;HPM_P1;HPM_P2
2022/08/08 00:00:08;;;;;;;9.37;5.63;;;;;;;22.11;64.94;100636.80;125503;1101;104108;-75
2022/08/08 00:03:08;;;;;;;14.00;5.70;;;;;;;22.10;65.11;100633.26;124212;1099;104173;-76
2022/08/08 00:05:39;;;;;;;10.00;5.23;;;;;;;22.13;65.08;100634.99;124192;1099;104274;-75
2022/08/08 00:08:18;;;;;;;12.43;5.70;;;;;;;22.09;64.90;100647.51;124252;1099;104354;-75
2022/08/08 00:10:55;;;;;;;12.83;6.00;;;;;;;22.06;64.86;100644.86;124252;1099;103086;-75
2022/08/08 00:13:32;;;;;;;9.70;5.87;;;;;;;22.02;65.39;100643.14;124183;1099;104673;-75
2022/08/08 00:16:06;;;;;;;10.60;5.60;;;;;;;21.99;65.77;100637.83;124228;1099;104208;-75
2022/08/08 00:18:43;;;;;;;8.07;5.10;;;;;;;21.95;65.37;100649.43;124225;1099;104248;-75
2022/08/08 00:21:20;;;;;;;10.93;5.80;;;;;;;21.90;65.34;100634.31;124255;1102;104214;-75
2022/08/08 00:23:53;;;;;;;9.13;5.57;;;;;;;21.85;66.06;100637.95;124233;1099;104176;-75
2022/08/08 00:26:25;;;;;;;13.17;5.50;;;;;;;21.83;66.02;100639.72;124209;1099;102837;-75
2022/08/08 00:29:02;;;;;;;9.20;6.00;;;;;;;21.83;66.31;100645.97;124219;1099;104249;-75
2022/08/08 00:31:36;;;;;;;11.43;5.70;;;;;;;21.82;66.43;100649.53;124132;1102;104625;-76
2022/08/08 00:37:25;;;;;;;9.20;5.70;;;;;;;21.74;66.31;100656.73;124222;1099;102822;-76
2022/08/08 00:40:11;;;;;;;10.60;5.73;;;;;;;21.75;65.82;100654.94;124184;1102;102791;-75
2022/08/08 00:42:59;;;;;;;12.40;6.00;;;;;;;21.75;65.79;100657.61;124140;1101;104245;-75
2022/08/08 00:45:53;;;;;;;9.00;5.65;;;;;;;21.70;66.25;100655.84;124219;1099;104217;-75
2022/08/08 00:48:55;;;;;;;10.23;5.70;;;;;;;21.65;67.02;100652.33;124230;1102;102775;-75
2022/08/08 00:51:59;;;;;;;11.03;6.10;;;;;;;21.63;67.41;100647.89;124169;1102;102902;-76
2022/08/08 00:55:16;;;;;;;9.73;5.90;;;;;;;21.60;66.58;100656.83;124209;1100;104518;-75
2022/08/08 00:58:28;;;;;;;11.90;5.93;;;;;;;21.56;66.63;100654.20;124186;1102;104275;-74
2022/08/08 01:01:08;;;;;;;10.47;5.77;;;;;;;21.56;67.55;100656.86;124172;1100;111206;-75
2022/08/08 01:04:18;;;;;;;11.53;6.83;;;;;;;21.51;66.85;100655.10;124208;1103;104290;-74
2022/08/08 01:07:17;;;;;;;9.30;5.80;;;;;;;21.50;67.75;100652.44;124126;1099;102899;-75
2022/08/08 01:10:24;;;;;;;8.70;5.77;;;;;;;21.49;67.85;100659.57;124234;1099;104287;-75
2022/08/08 01:13:25;;;;;;;12.40;6.17;;;;;;;21.49;67.45;100664.91;124716;1099;104220;-75
2022/08/08 01:16:16;;;;;;;13.57;6.23;;;;;;;21.47;67.95;100658.67;124246;1099;104159;-75
2022/08/08 01:19:28;;;;;;;9.47;5.70;;;;;;;21.48;67.12;100659.55;124278;1102;104294;-75
2022/08/08 01:22:40;;;;;;;9.77;5.73;;;;;;;21.49;68.13;100662.24;124205;1102;118932;-75
2022/08/08 01:25:40;;;;;;;11.65;5.78;;;;;;;21.44;67.69;100663.13;124175;1102;102809;-74
2022/08/08 01:28:37;;;;;;;13.40;6.30;;;;;;;21.42;68.87;100664.92;124216;1099;104235;-75
2022/08/08 01:31:41;;;;;;;11.97;5.93;;;;;;;21.36;68.55;100665.84;124392;1099;104235;-74
2022/08/08 01:34:36;;;;;;;10.40;6.27;;;;;;;21.30;68.38;100656.11;124318;1099;104408;-75
2022/08/08 01:37:48;;;;;;;12.73;6.50;;;;;;;21.31;68.60;100663.20;124677;1099;104325;-75
2022/08/08 01:40:27;;;;;;;10.63;6.10;;;;;;;21.30;68.16;100668.55;124146;1099;104403;-75
2022/08/08 01:43:05;;;;;;;10.73;6.17;;;;;;;21.27;68.22;100664.13;124155;1102;104287;-75
2022/08/08 01:45:50;;;;;;;12.47;6.10;;;;;;;21.24;69.18;100668.58;124200;1099;104176;-75
2022/08/08 01:48:35;;;;;;;13.37;6.80;;;;;;;21.22;68.90;100673.92;124193;1102;104166;-75
2022/08/08 01:51:31;;;;;;;9.27;6.03;;;;;;;21.21;69.15;100674.84;124217;1099;104230;-75
2022/08/08 01:54:14;;;;;;;11.40;6.30;;;;;;;21.21;69.41;100676.59;124169;1102;104300;-75
2022/08/08 01:56:57;;;;;;;13.10;6.43;;;;;;;21.23;69.48;100674.83;124182;1100;104118;-75
2022/08/08 01:59:49;;;;;;;10.27;6.17;;;;;;;21.22;68.98;100681.92;124137;1100;104364;-75
2022/08/08 02:02:32;;;;;;;12.83;5.87;;;;;;;21.23;69.26;100681.05;124187;1102;104297;-75
2022/08/08 02:05:12;;;;;;;11.93;6.50;;;;;;;21.24;69.65;100682.83;124137;1102;104536;-75
2022/08/08 02:08:00;;;;;;;11.43;6.30;;;;;;;21.23;69.70;100686.38;124117;1102;102940;-75
2022/08/08 02:10:44;;;;;;;10.87;6.47;;;;;;;21.21;70.04;100689.94;123991;1102;102522;-76
2022/08/08 02:13:17;;;;;;;10.60;6.50;;;;;;;21.16;70.00;100680.20;124179;1102;111723;-75
2022/08/08 02:15:52;;;;;;;11.55;6.62;;;;;;;21.16;69.62;100696.21;124221;1102;104250;-75
2022/08/08 02:18:29;;;;;;;12.70;6.40;;;;;;;21.12;69.52;100689.10;124175;1102;103195;-75
2022/08/08 02:23:59;;;;;;;12.73;7.10;;;;;;;21.12;69.93;100702.44;123993;1102;102428;-75
2022/08/08 02:26:34;;;;;;;13.30;6.87;;;;;;;21.12;70.29;100693.56;123998;1102;104339;-75
2022/08/08 02:29:23;;;;;;;10.87;6.17;;;;;;;21.10;70.10;100696.23;124081;1102;104305;-75
2022/08/08 02:32:21;;;;;;;12.13;6.97;;;;;;;21.10;70.50;100701.57;123998;1102;104465;-76
2022/08/08 02:35:17;;;;;;;9.70;6.50;;;;;;;21.11;69.75;100699.78;124166;1102;104798;-76
2022/08/08 02:38:16;;;;;;;11.13;6.80;;;;;;;21.11;70.17;100707.78;124198;1099;104242;-74
2022/08/08 02:41:04;;;;;;;13.47;7.20;;;;;;;21.11;70.31;100697.98;124216;1099;104243;-74
2022/08/08 02:44:11;;;;;;;12.90;7.13;;;;;;;21.09;69.73;100699.78;124214;1101;104233;-74
2022/08/08 02:47:09;;;;;;;12.73;6.73;;;;;;;21.09;70.70;100705.13;124180;1102;104306;-74
2022/08/08 02:50:07;;;;;;;12.80;7.35;;;;;;;21.07;71.21;100709.59;124165;1099;102788;-74
2022/08/08 02:52:52;;;;;;;13.23;8.13;;;;;;;21.08;70.66;100719.34;124150;1102;104191;-74
2022/08/08 02:56:00;;;;;;;13.40;7.73;;;;;;;21.07;70.58;100722.92;124173;1102;104495;-74
2022/08/08 02:59:23;;;;;;;13.50;7.90;;;;;;;21.06;70.46;100726.48;124235;1102;104211;-74
2022/08/08 03:02:34;;;;;;;16.07;8.77;;;;;;;21.07;71.59;100719.38;124178;1102;104245;-74
2022/08/08 03:05:33;;;;;;;14.60;8.50;;;;;;;21.06;71.34;100729.14;124305;1102;109199;-74
2022/08/08 03:08:56;;;;;;;15.37;9.17;;;;;;;21.04;72.30;100730.94;124207;1099;103588;-74
2022/08/08 03:12:06;;;;;;;19.73;9.17;;;;;;;21.04;71.30;100730.06;124182;1099;104242;-74
2022/08/08 03:15:16;;;;;;;14.87;8.77;;;;;;;21.03;71.27;100739.83;124131;1099;102765;-75
2022/08/08 03:17:51;;;;;;;16.60;9.13;;;;;;;21.04;72.46;100738.07;124143;1102;104226;-76
2022/08/08 03:20:18;;;;;;;18.97;9.13;;;;;;;21.00;71.47;100739.84;124182;1099;104182;-75
2022/08/08 03:22:49;;;;;;;15.97;8.80;;;;;;;20.99;72.63;100728.29;124171;1102;104353;-75
2022/08/08 03:25:22;;;;;;;16.13;9.43;;;;;;;21.01;72.49;100744.29;124105;1101;104401;-75
2022/08/08 03:27:58;;;;;;;14.67;9.00;;;;;;;21.01;71.71;100739.83;124191;1102;102287;-75
2022/08/08 03:30:30;;;;;;;18.17;9.60;;;;;;;21.01;72.53;100738.95;124275;1102;104229;-76
2022/08/08 03:33:18;;;;;;;17.67;9.83;;;;;;;21.04;71.82;100738.07;124209;1099;104085;-75
2022/08/08 03:35:51;;;;;;;19.57;9.87;;;;;;;21.05;72.51;100738.06;124181;1102;104238;-76
2022/08/08 03:38:22;;;;;;;18.17;10.60;;;;;;;21.08;72.00;100745.15;124153;1102;102568;-75
2022/08/08 03:40:53;;;;;;;20.33;9.70;;;;;;;21.09;72.85;100747.81;124317;1099;104256;-76
2022/08/08 03:43:24;;;;;;;18.60;10.00;;;;;;;21.11;73.28;100746.02;124219;1102;104227;-75
2022/08/08 03:45:56;;;;;;;17.67;10.20;;;;;;;21.10;72.27;100751.35;124202;1099;104245;-76
2022/08/08 03:48:30;;;;;;;17.60;10.20;;;;;;;21.08;72.47;100751.36;124239;1099;104191;-75
2022/08/08 03:51:05;;;;;;;21.23;10.03;;;;;;;21.09;72.97;100761.15;124146;1099;104166;-76
2022/08/08 03:53:39;;;;;;;22.20;10.28;;;;;;;21.06;72.44;100749.61;124239;1099;104214;-75
2022/08/08 03:56:15;;;;;;;18.93;10.63;;;;;;;21.07;73.09;100757.61;124330;1099;104163;-75
2022/08/08 03:58:50;;;;;;;20.47;10.17;;;;;;;21.03;73.77;100758.50;124255;1099;104235;-77
2022/08/08 04:01:19;;;;;;;21.07;11.05;;;;;;;20.97;73.34;100755.85;124180;1099;104242;-76
2022/08/08 04:04:09;;;;;;;18.93;10.87;;;;;;;20.88;72.58;100758.55;124701;1099;104239;-76
2022/08/08 04:06:54;;;;;;;19.30;11.57;;;;;;;20.83;74.08;100758.55;124214;1102;104211;-76
2022/08/08 04:09:23;;;;;;;18.23;10.87;;;;;;;20.77;74.42;100764.81;124135;1101;104255;-76
2022/08/08 04:11:52;;;;;;;19.67;11.57;;;;;;;20.73;74.41;100759.48;124198;1102;102809;-76
2022/08/08 04:14:21;;;;;;;19.07;11.07;;;;;;;20.71;74.00;100762.16;124199;1102;104482;-76
2022/08/08 04:16:50;;;;;;;21.77;11.23;;;;;;;20.69;74.09;100773.70;124214;1102;104949;-76
2022/08/08 04:19:20;;;;;;;20.47;12.00;;;;;;;20.64;74.68;100765.67;124195;1102;104239;-76
2022/08/08 04:21:49;;;;;;;19.43;11.30;;;;;;;20.61;75.71;100771.02;124153;1102;104274;-76
2022/08/08 04:24:18;;;;;;;23.33;12.57;;;;;;;20.55;75.14;100771.02;124190;1102;104173;-76
2022/08/08 04:26:47;;;;;;;23.57;13.23;;;;;;;20.50;75.20;100775.47;124165;1102;104211;-76
2022/08/08 04:29:15;;;;;;;22.73;12.30;;;;;;;20.44;74.88;100777.27;124221;1102;104245;-76
2022/08/08 04:31:44;;;;;;;20.77;12.07;;;;;;;20.40;75.44;100778.14;124250;1099;103324;-76
2022/08/08 04:34:13;;;;;;;21.63;12.63;;;;;;;20.37;75.51;100780.81;124238;1102;102797;-76
2022/08/08 04:36:43;;;;;;;21.70;12.77;;;;;;;20.37;75.50;100772.81;124166;1099;104169;-76
2022/08/08 04:39:12;;;;;;;21.33;12.40;;;;;;;20.37;75.60;100774.60;124157;1102;104176;-76
2022/08/08 04:41:41;;;;;;;20.83;12.67;;;;;;;20.38;76.52;100774.60;124156;1102;104184;-76
2022/08/08 04:44:10;;;;;;;22.80;13.47;;;;;;;20.38;76.58;100774.60;124210;1102;104252;-76
2022/08/08 04:46:39;;;;;;;20.83;12.33;;;;;;;20.40;75.68;100778.14;124230;1099;104242;-77
2022/08/08 04:49:08;;;;;;;19.43;12.43;;;;;;;20.44;76.62;100779.02;124137;1102;104618;-77
2022/08/08 04:51:37;;;;;;;22.60;12.77;;;;;;;20.48;76.32;100780.81;124221;1099;104268;-77
2022/08/08 04:54:07;;;;;;;19.97;12.07;;;;;;;20.51;76.31;100787.92;124266;1099;102242;-77
2022/08/08 04:56:38;;;;;;;20.20;12.43;;;;;;;20.52;76.92;100787.92;124245;1102;102482;-76
2022/08/08 04:59:08;;;;;;;21.93;12.60;;;;;;;20.54;77.07;100783.47;124316;1100;102806;-77
2022/08/08 05:01:38;;;;;;;20.50;12.50;;;;;;;20.57;77.29;100778.14;124309;1099;102778;-77
2022/08/08 05:04:07;;;;;;;20.10;12.50;;;;;;;20.61;77.07;100787.01;124246;1103;102893;-77
2022/08/08 05:06:38;;;;;;;22.13;12.73;;;;;;;20.67;77.21;100780.83;124249;1102;104153;-77
2022/08/08 05:09:07;;;;;;;22.13;12.70;;;;;;;20.72;77.78;100793.23;124254;1102;102589;-77
2022/08/08 05:11:38;;;;;;;21.60;12.20;;;;;;;20.75;76.41;100787.91;124325;1102;104351;-77
2022/08/08 05:14:10;;;;;;;21.60;13.50;;;;;;;20.80;76.04;100790.56;124067;1101;104483;-77
2022/08/08 05:16:43;;;;;;;21.67;12.97;;;;;;;20.86;76.10;100789.67;124094;1102;104253;-77
2022/08/08 05:19:12;;;;;;;19.17;12.37;;;;;;;20.91;76.74;100785.20;124118;1102;104239;-77
2022/08/08 05:21:42;;;;;;;23.83;13.20;;;;;;;20.98;76.90;100786.98;124273;1102;102986;-77
2022/08/08 05:24:12;;;;;;;22.00;13.13;;;;;;;21.01;76.16;100787.85;124245;1102;104377;-78
2022/08/08 05:26:45;;;;;;;23.57;13.17;;;;;;;21.08;76.47;100788.71;124043;1105;104185;-77
2022/08/08 05:29:14;;;;;;;25.70;13.53;;;;;;;21.13;76.11;100786.03;124220;1102;104286;-78
2022/08/08 05:31:50;;;;;;;23.07;12.80;;;;;;;21.17;77.08;100783.34;124216;1105;104214;-77
2022/08/08 05:34:48;;;;;;;21.27;12.63;;;;;;;21.21;77.28;100797.59;124082;1105;104339;-79
2022/08/08 05:37:22;;;;;;;21.50;12.40;;;;;;;21.17;77.23;100786.02;124901;1102;104230;-80
2022/08/08 05:39:55;;;;;;;21.40;12.20;;;;;;;21.28;77.13;100793.11;124793;1102;104258;-78
2022/08/08 05:42:35;;;;;;;22.87;13.33;;;;;;;21.34;76.62;100801.97;124903;1105;103334;-79
2022/08/08 05:45:11;;;;;;;20.77;12.30;;;;;;;21.41;77.05;100800.19;124335;1102;104870;-78
2022/08/08 05:47:42;;;;;;;20.95;12.37;;;;;;;21.49;77.34;100801.06;124335;1102;102848;-78
2022/08/08 05:50:18;;;;;;;22.70;13.33;;;;;;;21.53;77.15;100780.57;124327;1102;104368;-78
2022/08/08 05:52:50;;;;;;;21.65;12.40;;;;;;;21.72;76.47;100797.38;124114;1102;104229;-79
2022/08/08 05:55:19;;;;;;;19.97;11.73;;;;;;;21.82;76.26;100799.11;125426;1102;102188;-79
2022/08/08 05:57:53;;;;;;;19.40;11.77;;;;;;;21.93;76.88;100795.50;125332;1102;102207;-79
2022/08/08 06:00:31;;;;;;;22.30;12.03;;;;;;;22.05;76.53;100798.97;125076;1102;104185;-79
2022/08/08 06:03:10;;;;;;;19.77;11.13;;;;;;;22.15;76.03;100796.23;125418;1102;102174;-79
2022/08/08 06:05:55;;;;;;;20.60;10.80;;;;;;;22.23;76.44;100800.59;125291;1099;104241;-79
2022/08/08 06:08:29;;;;;;;18.23;11.30;;;;;;;22.30;76.45;100800.55;125138;1102;104233;-80
2022/08/08 06:11:05;;;;;;;19.07;11.30;;;;;;;22.39;75.63;100806.77;125058;1102;104292;-79
2022/08/08 06:13:39;;;;;;;18.77;11.17;;;;;;;22.50;75.22;100800.42;126188;1102;101648;-78
2022/08/08 06:16:24;;;;;;;21.03;11.13;;;;;;;22.61;75.25;100812.81;125581;1102;102483;-77
2022/08/08 06:19:05;;;;;;;20.63;11.20;;;;;;;22.68;74.82;100807.41;125121;1102;104251;-77
2022/08/08 06:21:40;;;;;;;18.77;10.78;;;;;;;22.75;74.47;100810.01;125159;1103;102798;-78
2022/08/08 06:24:19;;;;;;;19.00;10.73;;;;;;;22.84;74.74;100800.98;124427;1102;104361;-79
2022/08/08 06:27:03;;;;;;;18.73;10.37;;;;;;;22.94;74.75;100800.00;125005;1102;104369;-79
2022/08/08 06:29:48;;;;;;;20.70;11.00;;;;;;;23.09;74.47;100798.99;125002;1102;103098;-79
2022/08/08 06:32:40;;;;;;;18.57;11.20;;;;;;;23.26;74.37;100796.09;124962;1102;104217;-79
2022/08/08 06:35:18;;;;;;;18.53;11.70;;;;;;;23.36;74.06;100801.34;125023;1102;104649;-80
2022/08/08 06:37:58;;;;;;;16.60;10.60;;;;;;;23.37;73.54;100801.31;125057;1103;101983;-80
2022/08/08 06:40:32;;;;;;;18.00;11.30;;;;;;;23.43;73.37;100797.69;125006;1102;104078;-78
2022/08/08 06:43:21;;;;;;;21.07;11.37;;;;;;;23.51;73.49;100798.47;125088;1102;104369;-79
2022/08/08 06:46:30;;;;;;;20.80;11.87;;;;;;;23.65;73.26;100800.96;125214;1100;102842;-80
2022/08/08 06:49:04;;;;;;;19.57;11.30;;;;;;;23.69;72.52;100808.06;125182;1102;104161;-79
2022/08/08 06:51:43;;;;;;;20.20;11.67;;;;;;;23.75;72.34;100810.66;125551;1099;104054;-78
2022/08/08 06:54:26;;;;;;;21.37;12.40;;;;;;;23.78;71.74;100805.26;125328;1099;102265;-79
2022/08/08 06:57:17;;;;;;;18.33;11.03;;;;;;;23.81;70.92;100805.22;126686;1098;102128;-79
2022/08/08 06:59:50;;;;;;;19.50;12.35;;;;;;;23.89;71.19;100807.82;124938;1102;102422;-77
2022/08/08 07:02:35;;;;;;;;;;;;;;;;;;;;;
2022/08/08 07:05:07;;;;;;;21.07;11.85;;;;;;;24.09;71.43;100806.62;125461;1099;102922;-77
2022/08/08 07:07:56;;;;;;;19.97;11.70;;;;;;;24.19;71.40;100801.09;124368;1102;102890;-77
2022/08/08 07:10:36;;;;;;;18.63;11.33;;;;;;;24.37;71.18;100805.28;125321;1099;103055;-78
2022/08/08 07:13:24;;;;;;;20.00;11.90;;;;;;;24.56;70.26;100805.85;124487;1100;102397;-80
2022/08/08 07:16:04;;;;;;;20.20;11.47;;;;;;;24.66;69.52;100811.97;124951;1099;104070;-79
2022/08/08 07:18:43;;;;;;;19.80;11.07;;;;;;;24.85;69.62;100817.00;124976;1102;104229;-78
2022/08/08 07:21:24;;;;;;;17.53;11.10;;;;;;;24.90;68.94;100815.11;125022;1102;104335;-79
2022/08/08 07:24:18;;;;;;;18.73;11.13;;;;;;;24.94;69.03;100816.83;125050;1099;102005;-78
2022/08/08 07:27:10;;;;;;;20.40;11.63;;;;;;;25.05;68.58;100816.63;125036;1099;104264;-78
2022/08/08 07:29:55;;;;;;;18.30;11.30;;;;;;;25.07;67.83;100815.70;124994;1099;104165;-78
2022/08/08 07:32:28;;;;;;;21.47;11.23;;;;;;;25.16;67.71;100817.30;124984;1099;104069;-78
2022/08/08 07:35:03;;;;;;;17.33;10.23;;;;;;;25.22;67.65;100817.17;125094;1099;104342;-79
2022/08/08 07:37:38;;;;;;;19.00;11.70;;;;;;;25.29;67.06;100817.96;125008;1102;102756;-78
2022/08/08 07:40:32;;;;;;;19.27;11.20;;;;;;;25.28;66.76;100827.83;125007;1102;104255;-78
2022/08/08 07:43:10;;;;;;;20.60;11.77;;;;;;;25.41;66.70;100812.34;125550;1101;104339;-78
2022/08/08 07:46:14;;;;;;;18.13;11.30;;;;;;;25.55;65.58;100827.30;125598;1099;104072;-78
2022/08/08 07:49:12;;;;;;;18.83;11.30;;;;;;;25.63;66.44;100823.55;125005;1102;103579;-78
2022/08/08 07:51:49;;;;;;;19.80;12.40;;;;;;;25.92;65.79;100811.24;125025;1102;104377;-78
2022/08/08 07:54:49;;;;;;;19.23;11.07;;;;;;;26.15;65.82;100813.42;125696;1098;101817;-78
2022/08/08 07:57:36;;;;;;;19.97;11.87;;;;;;;26.30;65.03;100816.66;125041;1099;104178;-78
2022/08/08 08:00:14;;;;;;;20.57;11.63;;;;;;;26.41;64.61;100817.27;125470;1102;102756;-77
2022/08/08 08:03:23;;;;;;;20.73;11.50;;;;;;;26.54;63.85;100807.97;125000;1099;104160;-77
2022/08/08 08:06:00;;;;;;;19.30;11.37;;;;;;;26.63;63.81;100816.72;125002;1099;104209;-78
2022/08/08 08:08:46;;;;;;;18.07;11.13;;;;;;;26.86;63.42;100814.33;124980;1099;104179;-78
2022/08/08 08:11:36;;;;;;;20.40;11.37;;;;;;;27.10;62.72;100806.53;126118;1099;104060;-79
2022/08/08 08:14:19;;;;;;;18.27;11.60;;;;;;;27.23;61.30;100802.55;125010;1101;104271;-79
2022/08/08 08:16:51;;;;;;;18.57;10.57;;;;;;;27.33;61.76;100808.61;124988;1099;104238;-78
2022/08/08 08:19:38;;;;;;;16.77;10.70;;;;;;;27.43;61.54;100804.70;124994;1102;104238;-78
2022/08/08 08:22:16;;;;;;;18.83;11.37;;;;;;;27.46;60.30;100798.34;124946;1102;104169;-78
2022/08/08 08:25:08;;;;;;;18.00;10.97;;;;;;;27.51;60.73;100799.08;124983;1099;104178;-77
2022/08/08 08:27:46;;;;;;;15.77;10.30;;;;;;;27.62;60.49;100799.63;125005;1099;103276;-77
2022/08/08 08:30:20;;;;;;;18.73;10.70;;;;;;;27.72;59.99;100793.95;125004;1102;101795;-77
2022/08/08 08:32:55;;;;;;;18.73;10.30;;;;;;;27.80;59.76;100798.19;124897;1102;102332;-78
2022/08/08 08:35:42;;;;;;;16.70;10.43;;;;;;;27.85;59.92;100806.14;124876;1102;102846;-78
2022/08/08 08:38:30;;;;;;;17.77;10.83;;;;;;;27.86;59.52;100793.53;124758;1105;102384;-77
2022/08/08 08:41:11;;;;;;;21.60;12.50;;;;;;;27.98;59.37;100803.95;124770;1102;104362;-79
2022/08/08 08:43:49;;;;;;;17.42;10.63;;;;;;;28.08;59.14;100801.84;124755;1102;104351;-78
2022/08/08 08:46:24;;;;;;;17.90;10.53;;;;;;;28.15;59.15;100811.52;124820;1106;102710;-78
2022/08/08 08:49:00;;;;;;;19.47;11.37;;;;;;;28.26;58.21;100805.77;124851;1105;102532;-78
2022/08/08 08:51:37;;;;;;;17.20;10.07;;;;;;;28.29;58.07;100806.53;124815;1102;102117;-77
2022/08/08 08:54:13;;;;;;;17.63;10.27;;;;;;;28.32;57.75;100801.04;124933;1106;112029;-81
2022/08/08 08:56:48;;;;;;;20.53;10.97;;;;;;;28.43;57.01;100797.98;124955;1102;102454;-77
2022/08/08 08:59:27;;;;;;;16.67;11.10;;;;;;;28.54;56.82;100804.84;124969;1102;104421;-77
2022/08/08 09:02:05;;;;;;;19.80;10.95;;;;;;;28.56;56.39;100802.96;124986;1102;104232;-79
2022/08/08 09:04:37;;;;;;;20.87;11.23;;;;;;;28.54;56.20;100803.02;125009;1099;104329;-78
2022/08/08 09:07:29;;;;;;;17.50;11.47;;;;;;;28.61;56.15;100795.61;125905;1099;102880;-78
2022/08/08 09:10:05;;;;;;;20.20;11.67;;;;;;;28.68;55.74;100791.77;125048;1102;102814;-78
2022/08/08 09:12:46;;;;;;;17.33;11.00;;;;;;;28.79;55.68;100792.27;125061;1100;102264;-78
2022/08/08 09:15:23;;;;;;;18.70;11.37;;;;;;;28.93;55.32;100785.50;125475;1100;101968;-78
2022/08/08 09:18:07;;;;;;;19.93;10.97;;;;;;;29.05;55.20;100785.92;125042;1102;104239;-78
2022/08/08 09:20:47;;;;;;;16.97;11.00;;;;;;;29.04;54.73;100775.17;126191;1098;101899;-80
2022/08/08 09:23:26;;;;;;;19.63;11.17;;;;;;;29.12;54.36;100775.77;125147;1099;104243;-79
2022/08/08 09:26:06;;;;;;;19.63;11.93;;;;;;;29.20;54.38;100789.02;125684;1102;103969;-79
2022/08/08 09:28:44;;;;;;;18.13;11.00;;;;;;;29.21;54.13;100772.75;125427;1099;102286;-79
2022/08/08 09:31:35;;;;;;;;;;;;;;;29.18;52.66;100770.13;125148;1102;104201;-79
2022/08/08 09:34:10;;;;;;;18.27;11.03;;;;;;;29.23;53.30;100772.70;125126;1102;102538;-78
2022/08/08 09:36:47;;;;;;;18.70;10.97;;;;;;;29.19;53.19;100779.14;126155;1101;104181;-79
2022/08/08 09:39:32;;;;;;;17.47;10.60;;;;;;;29.29;53.02;100774.30;125456;1102;104148;-78
2022/08/08 09:42:10;;;;;;;15.47;9.73;;;;;;;29.43;52.99;100762.96;124918;1102;104347;-77
2022/08/08 09:45:06;;;;;;;20.07;10.40;;;;;;;29.53;52.62;100765.25;124549;1102;103589;-78
2022/08/08 09:47:48;;;;;;;18.23;10.13;;;;;;;29.45;52.03;100764.67;124875;1102;104339;-78
2022/08/08 09:50:22;;;;;;;17.23;11.13;;;;;;;29.44;52.10;100756.63;125448;1102;104217;-78
2022/08/08 09:52:55;;;;;;;20.07;11.27;;;;;;;29.47;51.82;100759.20;124886;1102;102999;-78
2022/08/08 09:55:25;;;;;;;19.85;10.93;;;;;;;29.57;51.91;100760.59;124258;1105;108106;-78
2022/08/08 09:58:04;;;;;;;17.67;10.50;;;;;;;29.60;51.79;100757.77;124831;1105;102448;-77
2022/08/08 10:00:36;;;;;;;21.33;10.97;;;;;;;29.70;51.77;100751.06;124085;1105;102242;-78
2022/08/08 10:03:14;;;;;;;17.93;11.10;;;;;;;29.77;51.09;100751.69;124886;1105;102200;-78
2022/08/08 10:05:47;;;;;;;22.37;11.07;;;;;;;29.76;51.09;100740.00;124841;1102;119019;-78
2022/08/08 10:08:17;;;;;;;18.33;10.53;;;;;;;29.88;51.09;100748.58;124825;1102;102241;-78
2022/08/08 10:10:47;;;;;;;18.73;10.83;;;;;;;29.94;51.17;100749.20;124776;1105;104124;-77
2022/08/08 10:13:19;;;;;;;19.63;11.47;;;;;;;30.04;50.79;100744.28;124889;1102;104303;-78
2022/08/08 10:15:51;;;;;;;18.52;10.82;;;;;;;30.00;50.07;100741.80;125011;1099;104306;-77
2022/08/08 10:18:29;;;;;;;18.63;10.97;;;;;;;29.97;50.52;100737.38;124915;1099;104195;-79
2022/08/08 10:21:04;;;;;;;20.00;11.73;;;;;;;30.03;50.02;100742.54;124304;1099;102989;-78
2022/08/08 10:23:45;;;;;;;18.60;11.23;;;;;;;30.08;49.81;100748.63;124420;1099;102294;-78
2022/08/08 10:26:21;;;;;;;21.67;11.50;;;;;;;30.14;49.84;100735.78;124495;1099;112022;-78
2022/08/08 10:29:01;;;;;;;19.80;11.30;;;;;;;30.13;49.48;100728.63;124402;1099;104301;-78
2022/08/08 10:34:42;;;;;;;19.17;11.12;;;;;;;30.26;49.79;100733.45;124785;1102;104329;-79
2022/08/08 10:37:25;;;;;;;18.30;11.23;;;;;;;30.33;49.21;100727.78;124864;1105;104195;-78
2022/08/08 10:40:13;;;;;;;21.73;10.83;;;;;;;30.40;48.88;100729.28;124893;1099;104159;-78
2022/08/08 10:42:47;;;;;;;22.20;11.00;;;;;;;30.45;48.93;100722.73;124964;1102;104256;-78
2022/08/08 10:45:16;;;;;;;19.53;10.40;;;;;;;30.44;48.58;100715.55;124291;1102;102663;-77
2022/08/08 10:47:54;;;;;;;17.13;10.03;;;;;;;30.53;48.45;100719.70;124285;1102;104351;-78
2022/08/08 10:50:32;;;;;;;16.93;10.07;;;;;;;30.55;48.03;100704.25;124376;1099;102426;-78
2022/08/08 10:53:05;;;;;;;19.93;10.60;;;;;;;30.57;47.86;100706.89;124987;1099;104169;-77
2022/08/08 10:55:41;;;;;;;16.10;10.20;;;;;;;30.62;47.99;100707.55;125023;1099;101890;-77
2022/08/08 10:58:13;;;;;;;19.43;10.23;;;;;;;30.67;47.60;100710.95;124315;1099;103004;-77
2022/08/08 11:00:44;;;;;;;15.47;9.50;;;;;;;30.72;47.45;100708.05;124308;1102;104329;-77
2022/08/08 11:03:18;;;;;;;17.90;9.70;;;;;;;30.76;47.07;100698.81;124369;1099;104217;-79
2022/08/08 11:05:50;;;;;;;16.03;9.87;;;;;;;30.85;47.08;100692.11;124339;1102;102801;-78
2022/08/08 11:08:30;;;;;;;15.83;9.05;;;;;;;30.92;46.86;100693.59;124480;1099;104207;-79
2022/08/08 11:11:04;;;;;;;19.40;9.33;;;;;;;30.96;46.25;100692.48;125166;1102;102511;-78
2022/08/08 11:13:42;;;;;;;16.37;8.93;;;;;;;31.00;46.33;100691.43;125331;1099;104376;-78
2022/08/08 11:16:22;;;;;;;15.33;8.63;;;;;;;31.07;46.00;100686.59;125003;1102;104309;-78
2022/08/08 11:18:59;;;;;;;14.23;8.20;;;;;;;31.18;46.03;100679.73;125029;1099;101835;-77
2022/08/08 11:21:29;;;;;;;;;;;;;;;31.28;45.86;100677.45;124987;1102;104243;-77
2022/08/08 11:24:04;;;;;;;16.07;8.70;;;;;;;31.34;45.62;100671.73;125009;1099;104232;-78
2022/08/08 11:26:40;;;;;;;18.53;8.90;;;;;;;31.34;45.00;100660.89;125349;1099;104329;-78
2022/08/08 11:29:10;;;;;;;15.33;8.83;;;;;;;31.36;45.03;100677.08;125695;1099;104165;-78
2022/08/08 11:31:46;;;;;;;13.90;6.77;;;;;;;31.40;44.46;100678.70;124430;1102;102328;-79
2022/08/08 11:34:18;;;;;;;11.37;6.37;;;;;;;31.49;44.64;100675.54;125107;1102;102310;-80
2022/08/08 11:36:55;;;;;;;11.30;6.60;;;;;;;31.56;43.94;100675.27;125076;1102;103114;-79
2022/08/08 11:39:26;;;;;;;11.60;6.27;;;;;;;31.60;44.01;100669.62;124978;1102;104820;-79
2022/08/08 11:42:17;;;;;;;12.30;6.07;;;;;;;31.62;43.10;100673.12;125114;1099;102585;-79
2022/08/08 11:44:52;;;;;;;13.97;6.13;;;;;;;31.60;42.98;100666.91;124968;1102;102281;-77
2022/08/08 11:47:27;;;;;;;10.53;5.90;;;;;;;31.63;42.33;100666.73;125461;1098;104176;-77
2022/08/08 11:50:05;;;;;;;9.90;5.87;;;;;;;31.69;42.39;100662.84;125644;1099;104172;-78
2022/08/08 11:52:36;;;;;;;13.27;6.00;;;;;;;31.76;41.64;100663.41;125655;1099;104245;-79
2022/08/08 11:55:25;;;;;;;14.13;6.47;;;;;;;31.77;41.89;100662.45;126420;1098;102142;-78
2022/08/08 11:58:07;;;;;;;12.77;6.40;;;;;;;31.82;41.30;100669.42;124928;1099;104214;-78
2022/08/08 12:00:43;;;;;;;15.33;6.50;;;;;;;31.86;41.34;100646.58;124953;1102;102028;-79
2022/08/08 12:03:20;;;;;;;11.13;6.30;;;;;;;31.88;41.84;100651.94;124324;1099;104200;-79
2022/08/08 12:05:53;;;;;;;12.47;6.50;;;;;;;31.89;41.12;100649.14;124950;1098;104294;-79
2022/08/08 12:08:45;;;;;;;12.95;6.75;;;;;;;31.93;40.90;100643.56;125118;1102;104152;-79